createdAt,value
2019-06-20T00:00:57.723Z,101213.27
2019-06-20T00:03:28.613Z,101213.57
2019-06-20T00:06:01.883Z,101213.57
2019-06-20T00:08:32.094Z,101210.55
2019-06-20T00:11:06.233Z,101204.02
2019-06-20T00:13:38.063Z,101215.78
2019-06-20T00:16:07.716Z,101219.06
2019-06-20T00:18:39.619Z,101219.06
2019-06-20T00:21:15.933Z,101218.23
2019-06-20T00:23:47.642Z,101204.89
2019-06-20T00:26:19.065Z,101216.09
2019-06-20T00:28:56.070Z,101216.11
2019-06-20T00:31:29.703Z,101218.05
2019-06-20T00:34:01.471Z,101205.77
2019-06-20T00:36:51.414Z,101221.92
2019-06-20T00:39:22.244Z,101221.40
2019-06-20T00:41:52.515Z,101223.31
2019-06-20T00:44:23.896Z,101217.01
2019-06-20T00:46:53.922Z,101216.22
2019-06-20T00:49:27.444Z,101213.20
2019-06-20T00:51:56.780Z,101210.23
2019-06-20T00:54:28.270Z,101212.61
2019-06-20T00:57:05.006Z,101215.09
2019-06-20T00:59:33.746Z,101208.56
2019-06-20T01:02:02.475Z,101207.78
2019-06-20T01:04:32.286Z,101213.49
2019-06-20T01:07:01.010Z,101213.52
2019-06-20T01:09:34.021Z,101214.88
2019-06-20T01:12:06.533Z,101211.05
2019-06-20T01:14:52.059Z,101215.45
2019-06-20T01:17:28.180Z,101210.81
2019-06-20T01:20:04.242Z,101214.92
2019-06-20T01:25:21.875Z,101209.87
2019-06-20T01:27:53.668Z,101207.40
2019-06-20T01:30:29.053Z,101207.40
2019-06-20T01:33:31.664Z,101215.34
2019-06-20T01:36:32.029Z,101217.84
2019-06-20T01:42:44.491Z,101214.89
2019-06-20T01:45:28.146Z,101215.67
2019-06-20T01:48:01.133Z,101215.67
2019-06-20T01:50:33.790Z,101198.16
2019-06-20T01:53:03.848Z,101199.16
2019-06-20T01:55:35.723Z,101193.86
2019-06-20T01:58:07.318Z,101201.95
2019-06-20T02:00:46.005Z,101201.95
2019-06-20T02:03:15.672Z,101203.85
2019-06-20T02:05:48.444Z,101206.57
2019-06-20T02:08:25.964Z,101195.09
2019-06-20T02:10:55.662Z,101196.67
2019-06-20T02:13:26.376Z,101191.70
2019-06-20T02:15:55.647Z,101198.51
2019-06-20T02:18:35.002Z,101190.00
2019-06-20T02:21:06.012Z,101190.86
2019-06-20T02:23:38.011Z,101190.61
2019-06-20T02:26:10.330Z,101190.33
2019-06-20T02:28:41.999Z,101190.33
2019-06-20T02:31:13.046Z,101180.56
2019-06-20T02:33:44.216Z,101183.02
2019-06-20T02:36:29.351Z,101183.63
2019-06-20T02:39:02.487Z,101185.29
2019-06-20T02:41:32.673Z,101184.77
2019-06-20T02:44:29.029Z,101180.64
2019-06-20T02:46:42.405Z,101176.55
2019-06-20T02:49:13.897Z,101183.67
2019-06-20T02:51:50.076Z,101176.30
2019-06-20T02:54:20.621Z,101178.51
2019-06-20T02:57:04.301Z,101179.95
2019-06-20T02:59:34.231Z,101179.95
2019-06-20T03:02:02.967Z,101182.45
2019-06-20T03:04:36.124Z,101180.55
2019-06-20T03:07:30.857Z,101178.88
2019-06-20T03:10:01.709Z,101181.62
2019-06-20T03:12:33.788Z,101177.53
2019-06-20T03:15:09.576Z,101178.87
2019-06-20T03:17:39.013Z,101178.87
2019-06-20T03:20:10.754Z,101175.30
2019-06-20T03:22:45.188Z,101180.17
2019-06-20T03:25:21.380Z,101187.25
2019-06-20T03:27:54.725Z,101184.20
2019-06-20T03:30:27.993Z,101176.52
2019-06-20T03:32:57.984Z,101182.23
2019-06-20T03:35:27.837Z,101182.17
2019-06-20T03:37:58.203Z,101181.86
2019-06-20T03:40:29.847Z,101187.87
2019-06-20T03:43:03.885Z,101190.86
2019-06-20T03:45:32.772Z,101196.61
2019-06-20T03:48:03.562Z,101199.89
2019-06-20T03:50:34.858Z,101184.90
2019-06-20T03:53:03.535Z,101184.90
2019-06-20T03:55:36.581Z,101195.27
2019-06-20T03:58:07.305Z,101195.27
2019-06-20T04:00:40.665Z,101191.20
2019-06-20T04:03:15.135Z,101212.73
2019-06-20T04:05:46.479Z,101212.73
2019-06-20T04:08:16.752Z,101199.59
2019-06-20T04:10:45.496Z,101199.59
2019-06-20T04:13:25.573Z,101209.99
2019-06-20T04:15:57.173Z,101212.98
2019-06-20T04:18:35.637Z,101212.98
2019-06-20T04:21:08.041Z,101208.36
2019-06-20T04:23:42.104Z,101208.36
2019-06-20T04:26:30.965Z,101219.08
2019-06-20T04:29:01.975Z,101215.56
2019-06-20T04:31:31.881Z,101220.58
2019-06-20T04:34:19.461Z,101215.17
2019-06-20T04:36:48.662Z,101208.16
2019-06-20T04:39:19.869Z,101213.09
2019-06-20T04:41:58.523Z,101219.35
2019-06-20T04:44:30.446Z,101233.04
2019-06-20T04:47:10.468Z,101226.20
2019-06-20T04:49:42.507Z,101234.69
2019-06-20T04:52:11.201Z,101240.98
2019-06-20T04:54:45.557Z,101240.98
2019-06-20T04:57:14.305Z,101230.83
2019-06-20T04:59:45.116Z,101231.17
2019-06-20T05:02:18.742Z,101238.52
2019-06-20T05:04:52.291Z,101240.41
2019-06-20T05:07:27.182Z,101240.41
2019-06-20T05:09:55.944Z,101239.21
2019-06-20T05:12:34.068Z,101240.58
2019-06-20T05:15:02.759Z,101237.31
2019-06-20T05:17:32.399Z,101234.58
2019-06-20T05:20:03.488Z,101238.67
2019-06-20T05:22:32.959Z,101249.27
2019-06-20T05:25:08.475Z,101238.00
2019-06-20T05:27:43.291Z,101233.77
2019-06-20T05:30:16.123Z,101235.22
2019-06-20T05:32:47.989Z,101235.22
2019-06-20T05:35:17.911Z,101236.50
2019-06-20T05:37:55.495Z,101239.16
2019-06-20T05:40:26.732Z,101245.11
2019-06-20T05:43:00.515Z,101238.94
2019-06-20T05:45:29.238Z,101243.49
2019-06-20T05:47:58.284Z,101244.27
2019-06-20T05:50:32.380Z,101247.73
2019-06-20T05:53:05.144Z,101248.20
2019-06-20T05:55:34.499Z,101242.94
2019-06-20T05:58:09.665Z,101241.30
2019-06-20T06:00:39.853Z,101245.66
2019-06-20T06:03:08.563Z,101244.31
2019-06-20T06:05:39.681Z,101244.91
2019-06-20T06:08:09.142Z,101245.23
2019-06-20T06:10:43.444Z,101248.33
2019-06-20T06:13:19.506Z,101247.80
2019-06-20T06:15:48.237Z,101251.34
2019-06-20T06:18:18.160Z,101248.59
2019-06-20T06:21:05.428Z,101260.14
2019-06-20T06:23:34.174Z,101259.34
2019-06-20T06:26:08.725Z,101264.05
2019-06-20T06:28:37.409Z,101273.90
2019-06-20T06:31:10.395Z,101267.25
2019-06-20T06:33:41.664Z,101267.75
2019-06-20T06:36:16.078Z,101268.70
2019-06-20T06:38:47.334Z,101273.91
2019-06-20T06:41:22.235Z,101272.81
2019-06-20T06:43:53.829Z,101273.37
2019-06-20T06:46:43.742Z,101271.77
2019-06-20T06:49:01.060Z,101276.97
2019-06-20T06:51:33.398Z,101280.28
2019-06-20T06:54:04.197Z,101282.94
2019-06-20T06:56:44.722Z,101287.73
2019-06-20T06:59:15.484Z,101287.20
2019-06-20T07:01:56.654Z,101285.07
2019-06-20T07:04:29.330Z,101287.52
2019-06-20T07:07:00.788Z,101279.52
2019-06-20T07:09:35.436Z,101290.41
2019-06-20T07:12:06.830Z,101288.95
2019-06-20T07:14:35.570Z,101290.69
2019-06-20T07:17:08.107Z,101286.91
2019-06-20T07:22:27.156Z,101293.31
2019-06-20T07:24:57.359Z,101291.14
2019-06-20T07:27:27.188Z,101301.54
2019-06-20T07:29:59.692Z,101302.00
2019-06-20T07:32:30.194Z,101300.21
2019-06-20T07:34:58.882Z,101301.91
2019-06-20T07:37:29.589Z,101314.45
2019-06-20T07:40:07.887Z,101305.61
2019-06-20T07:42:39.949Z,101311.03
2019-06-20T07:45:14.401Z,101314.06
2019-06-20T07:47:52.633Z,101317.72
2019-06-20T07:50:39.599Z,101322.02
2019-06-20T07:53:09.883Z,101326.09
2019-06-20T07:55:40.632Z,101332.66
2019-06-20T07:58:18.891Z,101326.89
2019-06-20T08:01:07.190Z,101322.41
2019-06-20T08:03:36.951Z,101324.95
2019-06-20T08:06:10.727Z,101318.13
2019-06-20T08:08:44.767Z,101324.45
2019-06-20T08:11:17.201Z,101329.92
2019-06-20T08:13:52.179Z,101334.56
2019-06-20T08:16:32.237Z,101340.05
2019-06-20T08:19:03.230Z,101346.48
2019-06-20T08:21:36.389Z,101344.97
2019-06-20T08:24:09.660Z,101345.82
2019-06-20T08:26:40.515Z,101343.44
2019-06-20T08:29:20.863Z,101343.94
2019-06-20T08:31:48.705Z,101349.95
2019-06-20T08:34:21.818Z,101344.62
2019-06-20T08:36:53.575Z,101339.63
2019-06-20T08:39:23.438Z,101349.80
2019-06-20T08:41:52.335Z,101341.84
2019-06-20T08:44:22.120Z,101343.72
2019-06-20T08:46:53.480Z,101337.03
2019-06-20T08:49:25.790Z,101345.00
2019-06-20T08:51:57.569Z,101346.78
2019-06-20T08:54:31.704Z,101339.17
2019-06-20T08:57:23.191Z,101343.77
2019-06-20T09:00:55.961Z,101351.72
2019-06-20T09:03:27.212Z,101350.70
2019-06-20T09:05:58.265Z,101355.05
2019-06-20T09:08:34.652Z,101350.25
2019-06-20T09:11:15.333Z,101355.06
2019-06-20T09:17:56.819Z,101362.66
2019-06-20T09:20:49.434Z,101364.86
2019-06-20T09:27:05.935Z,101361.43
2019-06-20T09:32:42.068Z,101367.75
2019-06-20T09:35:15.065Z,101370.38
2019-06-20T09:37:46.822Z,101376.03
2019-06-20T09:40:19.139Z,101366.76
2019-06-20T09:45:47.858Z,101359.76
2019-06-20T09:48:36.814Z,101368.45
2019-06-20T09:51:14.102Z,101365.63
2019-06-20T09:53:53.943Z,101367.25
2019-06-20T09:56:26.268Z,101366.37
2019-06-20T09:59:08.503Z,101364.17
2019-06-20T10:01:38.560Z,101368.07
2019-06-20T10:04:11.425Z,101367.02
2019-06-20T10:06:52.325Z,101368.77
2019-06-20T10:09:54.046Z,101369.14
2019-06-20T10:12:38.236Z,101372.77
2019-06-20T10:15:15.807Z,101374.73
2019-06-20T10:17:50.915Z,101384.39
2019-06-20T10:20:24.984Z,101380.80
2019-06-20T10:22:58.280Z,101386.96
2019-06-20T10:25:36.653Z,101388.95
2019-06-20T10:28:11.763Z,101396.48
2019-06-20T10:30:46.727Z,101398.09
2019-06-20T10:33:18.629Z,101401.03
2019-06-20T10:35:50.594Z,101398.91
2019-06-20T10:41:43.568Z,101407.68
2019-06-20T10:44:24.759Z,101413.05
2019-06-20T10:46:59.872Z,101423.53
2019-06-20T10:52:26.945Z,101420.14
2019-06-20T10:57:49.838Z,101417.89
2019-06-20T11:03:20.546Z,101420.59
2019-06-20T11:06:12.399Z,101418.78
2019-06-20T11:11:47.201Z,101428.84
2019-06-20T11:14:23.095Z,101411.17
2019-06-20T11:23:39.410Z,101415.58
2019-06-20T11:29:33.468Z,101425.48
2019-06-20T11:32:13.237Z,101424.51
2019-06-20T11:34:58.127Z,101428.09
2019-06-20T11:37:40.264Z,101427.71
2019-06-20T11:40:22.172Z,101427.06
2019-06-20T11:43:11.613Z,101428.45
2019-06-20T11:45:57.386Z,101421.05
2019-06-20T11:48:48.601Z,101426.89
2019-06-20T11:51:28.935Z,101430.97
2019-06-20T11:54:04.044Z,101439.98
2019-06-20T11:56:51.252Z,101439.89
2019-06-20T12:11:04.053Z,101448.25
2019-06-20T12:13:34.406Z,101436.54
2019-06-20T12:16:17.497Z,101431.90
2019-06-20T12:18:53.043Z,101431.25
2019-06-20T12:21:23.513Z,101434.27
2019-06-20T12:23:54.165Z,101443.44
2019-06-20T12:26:31.090Z,101446.26
2019-06-20T12:29:00.907Z,101439.77
2019-06-20T12:31:35.886Z,101436.95
2019-06-20T12:34:10.792Z,101440.13
2019-06-20T12:36:42.508Z,101449.11
2019-06-20T12:39:21.611Z,101438.28
2019-06-20T12:41:59.535Z,101447.58
2019-06-20T12:47:27.254Z,101442.76
2019-06-20T12:50:06.757Z,101451.17
2019-06-20T12:52:53.083Z,101454.36
2019-06-20T12:55:28.279Z,101445.11
2019-06-20T13:01:40.636Z,101453.94
2019-06-20T13:04:20.715Z,101456.89
2019-06-20T13:06:56.194Z,101453.75
2019-06-20T13:09:25.189Z,101455.88
2019-06-20T13:11:58.900Z,101457.98
2019-06-20T13:14:33.145Z,101456.67
2019-06-20T13:17:04.528Z,101448.76
2019-06-20T13:19:44.363Z,101446.35
2019-06-20T13:22:25.674Z,101450.41
2019-06-20T13:25:19.285Z,101444.66
2019-06-20T13:27:51.176Z,101445.77
2019-06-20T13:30:23.423Z,101451.38
2019-06-20T13:32:56.387Z,101451.93
2019-06-20T13:35:28.431Z,101448.34
2019-06-20T13:38:05.126Z,101456.71
2019-06-20T13:40:41.458Z,101451.02
2019-06-20T13:49:25.941Z,101454.25
2019-06-20T13:52:23.883Z,101457.89
2019-06-20T13:55:05.761Z,101462.27
2019-06-20T13:57:49.214Z,101459.27
2019-06-20T14:00:29.734Z,101454.63
2019-06-20T14:03:20.433Z,101456.56
2019-06-20T14:05:53.608Z,101463.22
2019-06-20T14:08:27.729Z,101457.81
2019-06-20T14:11:17.411Z,101454.27
2019-06-20T14:13:50.156Z,101455.05
2019-06-20T14:16:24.626Z,101466.27
2019-06-20T14:19:04.825Z,101457.39
2019-06-20T14:22:17.600Z,101466.22
2019-06-20T14:24:50.839Z,101465.21
2019-06-20T14:27:29.729Z,101468.61
2019-06-20T14:30:19.977Z,101476.38
2019-06-20T14:32:51.864Z,101480.84
2019-06-20T14:35:23.554Z,101483.70
2019-06-20T14:37:59.634Z,101481.86
2019-06-20T14:40:45.372Z,101477.41
2019-06-20T14:43:25.028Z,101480.67
2019-06-20T14:45:58.121Z,101485.95
2019-06-20T14:48:29.955Z,101479.19
2019-06-20T14:51:17.521Z,101480.56
2019-06-20T14:53:49.436Z,101481.86
2019-06-20T14:56:19.961Z,101480.30
2019-06-20T14:58:51.651Z,101481.44
2019-06-20T15:01:26.552Z,101482.05
2019-06-20T15:06:54.751Z,101481.75
2019-06-20T15:09:25.599Z,101485.06
2019-06-20T15:11:59.628Z,101490.81
2019-06-20T15:14:38.692Z,101491.08
2019-06-20T15:17:10.051Z,101490.25
2019-06-20T15:19:39.957Z,101491.00
2019-06-20T15:22:14.131Z,101494.84
2019-06-20T15:27:54.777Z,101497.40
2019-06-20T15:30:33.515Z,101498.22
2019-06-20T15:33:10.514Z,101499.59
2019-06-20T15:35:56.942Z,101500.05
2019-06-20T15:38:28.829Z,101492.58
2019-06-20T15:40:59.120Z,101501.30
2019-06-20T15:43:28.450Z,101505.61
2019-06-20T15:46:08.264Z,101515.70
2019-06-20T15:48:42.988Z,101504.22
2019-06-20T15:51:50.780Z,101511.88
2019-06-20T15:54:31.852Z,101505.55
2019-06-20T15:57:09.150Z,101508.86
2019-06-20T15:59:42.191Z,101515.24
2019-06-20T16:02:18.523Z,101516.31
2019-06-20T16:05:00.137Z,101519.11
2019-06-20T16:10:35.253Z,101518.48
2019-06-20T16:13:14.636Z,101519.96
2019-06-20T16:15:47.771Z,101523.10
2019-06-20T16:18:20.692Z,101522.42
2019-06-20T16:20:51.256Z,101519.08
2019-06-20T16:23:20.297Z,101527.42
2019-06-20T16:26:07.216Z,101516.02
2019-06-20T16:28:38.111Z,101519.26
2019-06-20T16:31:25.541Z,101525.49
2019-06-20T16:33:43.882Z,101526.48
2019-06-20T16:36:13.318Z,101525.84
2019-06-20T16:38:43.157Z,101524.52
2019-06-20T16:41:14.377Z,101530.17
2019-06-20T16:43:46.176Z,101527.81
2019-06-20T16:46:15.615Z,101525.06
2019-06-20T16:48:44.262Z,101525.97
2019-06-20T16:51:18.744Z,101536.28
2019-06-20T16:53:48.681Z,101535.97
2019-06-20T16:56:19.671Z,101526.98
2019-06-20T16:58:49.036Z,101533.20
2019-06-20T17:01:18.612Z,101537.77
2019-06-20T17:03:48.114Z,101532.77
2019-06-20T17:06:29.511Z,101537.05
2019-06-20T17:08:59.900Z,101541.70
2019-06-20T17:11:28.764Z,101538.11
2019-06-20T17:14:11.436Z,101533.79
2019-06-20T17:16:41.650Z,101537.27
2019-06-20T17:19:14.437Z,101534.63
2019-06-20T17:21:46.186Z,101536.75
2019-06-20T17:24:15.664Z,101536.76
2019-06-20T17:26:49.363Z,101544.38
2019-06-20T17:29:22.665Z,101539.54
2019-06-20T17:31:52.118Z,101547.37
2019-06-20T17:34:22.150Z,101544.72
2019-06-20T17:36:51.992Z,101545.27
2019-06-20T17:39:20.685Z,101551.84
2019-06-20T17:41:55.307Z,101555.46
2019-06-20T17:44:21.971Z,101552.47
2019-06-20T17:46:52.379Z,101554.84
2019-06-20T17:49:21.197Z,101555.11
2019-06-20T17:51:54.582Z,101556.97
2019-06-20T17:54:24.908Z,101550.80
2019-06-20T17:57:02.366Z,101554.61
2019-06-20T17:59:36.017Z,101556.58
2019-06-20T18:02:18.777Z,101559.33
2019-06-20T18:04:51.381Z,101556.58
2019-06-20T18:07:24.065Z,101558.93
2019-06-20T18:09:53.830Z,101554.59
2019-06-20T18:12:24.000Z,101559.59
2019-06-20T18:14:55.427Z,101557.70
2019-06-20T18:17:27.061Z,101555.05
2019-06-20T18:19:55.903Z,101556.58
2019-06-20T18:22:27.958Z,101557.02
2019-06-20T18:24:57.610Z,101551.93
2019-06-20T18:27:51.891Z,101562.77
2019-06-20T18:30:25.541Z,101555.73
2019-06-20T18:32:55.278Z,101558.83
2019-06-20T18:35:28.968Z,101562.10
2019-06-20T18:38:05.750Z,101565.92
2019-06-20T18:40:34.618Z,101562.63
2019-06-20T18:43:06.292Z,101562.66
2019-06-20T18:45:37.168Z,101555.29
2019-06-20T18:48:09.537Z,101559.79
2019-06-20T18:50:39.171Z,101566.73
2019-06-20T18:53:11.445Z,101565.97
2019-06-20T18:55:40.209Z,101567.68
2019-06-20T18:58:12.411Z,101564.69
2019-06-20T19:00:43.030Z,101567.77
2019-06-20T19:03:14.347Z,101569.67
2019-06-20T19:05:48.022Z,101574.41
2019-06-20T19:08:19.284Z,101569.79
2019-06-20T19:10:51.942Z,101571.47
2019-06-20T19:13:22.521Z,101574.00
2019-06-20T19:15:56.189Z,101583.66
2019-06-20T19:18:26.986Z,101577.97
2019-06-20T19:23:55.249Z,101581.38
2019-06-20T19:26:24.971Z,101581.22
2019-06-20T19:28:57.901Z,101580.42
2019-06-20T19:31:28.674Z,101578.87
2019-06-20T19:33:59.307Z,101580.38
2019-06-20T19:36:30.323Z,101579.70
2019-06-20T19:39:05.759Z,101576.14
2019-06-20T19:41:34.540Z,101579.70
2019-06-20T19:44:07.212Z,101582.69
2019-06-20T19:46:47.303Z,101579.34
2019-06-20T19:49:15.942Z,101585.11
2019-06-20T19:51:47.829Z,101577.11
2019-06-20T19:54:19.164Z,101587.02
2019-06-20T19:57:01.263Z,101587.86
2019-06-20T19:59:31.929Z,101585.72
2019-06-20T20:02:02.025Z,101590.16
2019-06-20T20:04:33.773Z,101580.56
2019-06-20T20:07:10.074Z,101590.28
2019-06-20T20:09:40.439Z,101593.10
2019-06-20T20:12:09.402Z,101589.66
2019-06-20T20:14:43.488Z,101592.52
2019-06-20T20:17:12.218Z,101601.43
2019-06-20T20:19:42.534Z,101603.11
2019-06-20T20:22:13.518Z,101613.81
2019-06-20T20:24:42.850Z,101613.02
2019-06-20T20:27:15.331Z,101608.91
2019-06-20T20:29:45.932Z,101616.65
2019-06-20T20:32:28.579Z,101611.77
2019-06-20T20:34:57.227Z,101617.84
2019-06-20T20:37:28.224Z,101618.17
2019-06-20T20:40:00.371Z,101620.68
2019-06-20T20:42:34.279Z,101628.68
2019-06-20T20:45:06.102Z,101626.28
2019-06-20T20:47:34.957Z,101625.80
2019-06-20T20:50:05.563Z,101628.31
2019-06-20T20:52:34.209Z,101628.33
2019-06-20T20:55:09.403Z,101634.11
2019-06-20T20:57:38.164Z,101635.48
2019-06-20T21:00:26.585Z,101638.80
2019-06-20T21:03:01.730Z,101633.63
2019-06-20T21:05:32.719Z,101635.00
2019-06-20T21:08:07.273Z,101639.70
2019-06-20T21:10:36.816Z,101634.20
2019-06-20T21:13:09.787Z,101631.47
2019-06-20T21:15:40.449Z,101638.86
2019-06-20T21:18:12.269Z,101640.23
2019-06-20T21:20:45.606Z,101643.23
2019-06-20T21:23:14.833Z,101644.59
2019-06-20T21:25:43.783Z,101645.42
2019-06-20T21:28:14.686Z,101653.41
2019-06-20T21:30:52.358Z,101646.57
2019-06-20T21:33:23.524Z,101649.94
2019-06-20T21:36:07.383Z,101656.81
2019-06-20T21:38:24.919Z,101651.91
2019-06-20T21:40:58.237Z,101656.06
2019-06-20T21:43:30.794Z,101658.59
2019-06-20T21:45:59.447Z,101655.61
2019-06-20T21:48:28.317Z,101655.37
2019-06-20T21:50:57.338Z,101662.80
2019-06-20T21:53:28.417Z,101665.00
2019-06-20T21:55:58.295Z,101659.80
2019-06-20T21:58:27.503Z,101663.64
2019-06-20T22:01:02.417Z,101663.67
2019-06-20T22:03:32.329Z,101659.81
2019-06-20T22:06:01.091Z,101659.85
2019-06-20T22:08:34.285Z,101666.70
2019-06-20T22:11:03.010Z,101661.52
2019-06-20T22:13:32.462Z,101662.62
2019-06-20T22:16:01.918Z,101670.02
2019-06-20T22:18:31.550Z,101668.94
2019-06-20T22:21:01.662Z,101667.59
2019-06-20T22:23:35.428Z,101671.17
2019-06-20T22:26:14.522Z,101676.36
2019-06-20T22:28:43.163Z,101671.42
2019-06-20T22:31:12.195Z,101674.98
2019-06-20T22:33:44.695Z,101676.11
2019-06-20T22:36:13.808Z,101677.76
2019-06-20T22:38:45.950Z,101678.59
2019-06-20T22:41:18.618Z,101687.63
2019-06-20T22:43:48.449Z,101691.71
2019-06-20T22:46:20.227Z,101693.37
2019-06-20T22:48:50.548Z,101688.17
2019-06-20T22:51:19.318Z,101695.56
2019-06-20T22:53:50.769Z,101691.51
2019-06-20T22:56:20.516Z,101699.73
2019-06-20T22:58:54.892Z,101696.73
2019-06-20T23:01:26.041Z,101707.16
2019-06-20T23:03:54.778Z,101692.40
2019-06-20T23:06:23.617Z,101698.16
2019-06-20T23:08:58.428Z,101699.81
2019-06-20T23:11:30.786Z,101696.80
2019-06-20T23:14:01.073Z,101694.91
2019-06-20T23:16:31.894Z,101693.56
2019-06-20T23:19:00.640Z,101698.45
2019-06-20T23:21:29.231Z,101689.68
2019-06-20T23:23:58.025Z,101689.68
2019-06-20T23:26:29.669Z,101701.70
2019-06-20T23:29:17.469Z,101707.73
2019-06-20T23:31:46.130Z,101706.66
2019-06-20T23:34:17.276Z,101697.61
2019-06-20T23:36:48.905Z,101700.93
2019-06-20T23:39:20.279Z,101706.15
2019-06-20T23:41:49.948Z,101703.69
2019-06-20T23:44:18.688Z,101703.69
2019-06-20T23:46:50.341Z,101712.19
2019-06-20T23:49:22.339Z,101709.45
2019-06-20T23:51:58.365Z,101696.84
2019-06-20T23:54:29.283Z,101714.63
2019-06-20T23:56:58.519Z,101705.59
2019-06-20T23:59:27.254Z,101712.97
